sensor_id;sensor_type;location;lat;lon;timestamp;P1;durP1;ratioP1;P2;durP2;ratioP2
56680;SDS011;42558;52.388;13.390;2023-02-11T00:01:57;64.41;;;26.98;;
56680;SDS011;42558;52.388;13.390;2023-02-11T00:04:28;75.62;;;31.73;;
56680;SDS011;42558;52.388;13.390;2023-02-11T00:06:56;76.57;;;32.87;;
56680;SDS011;42558;52.388;13.390;2023-02-11T00:09:25;61.75;;;28.88;;
56680;SDS011;42558;52.388;13.390;2023-02-11T00:11:53;66.50;;;28.69;;
56680;SDS011;42558;52.388;13.390;2023-02-11T00:14:22;71.82;;;31.35;;
56680;SDS011;42558;52.388;13.390;2023-02-11T00:16:50;42.75;;;19.57;;
56680;SDS011;42558;52.388;13.390;2023-02-11T00:19:18;69.92;;;31.73;;
56680;SDS011;42558;52.388;13.390;2023-02-11T00:21:47;75.24;;;31.73;;
56680;SDS011;42558;52.388;13.390;2023-02-11T00:24:15;66.69;;;31.54;;
56680;SDS011;42558;52.388;13.390;2023-02-11T00:26:44;75.81;;;32.49;;
56680;SDS011;42558;52.388;13.390;2023-02-11T00:29:12;65.74;;;29.07;;
56680;SDS011;42558;52.388;13.390;2023-02-11T00:31:40;74.29;;;34.01;;
56680;SDS011;42558;52.388;13.390;2023-02-11T00:34:09;58.52;;;28.50;;
56680;SDS011;42558;52.388;13.390;2023-02-11T00:36:37;61.56;;;27.55;;
56680;SDS011;42558;52.388;13.390;2023-02-11T00:39:06;64.22;;;29.45;;
56680;SDS011;42558;52.388;13.390;2023-02-11T00:41:34;69.35;;;31.35;;
56680;SDS011;42558;52.388;13.390;2023-02-11T00:44:03;69.92;;;31.16;;
56680;SDS011;42558;52.388;13.390;2023-02-11T00:46:31;71.44;;;35.91;;
56680;SDS011;42558;52.388;13.390;2023-02-11T00:49:00;65.17;;;29.64;;
56680;SDS011;42558;52.388;13.390;2023-02-11T00:51:28;75.24;;;34.58;;
56680;SDS011;42558;52.388;13.390;2023-02-11T00:53:57;68.21;;;32.49;;
56680;SDS011;42558;52.388;13.390;2023-02-11T00:56:25;62.89;;;30.97;;
56680;SDS011;42558;52.388;13.390;2023-02-11T00:58:54;63.27;;;28.12;;
56680;SDS011;42558;52.388;13.390;2023-02-11T01:01:23;66.12;;;30.21;;
56680;SDS011;42558;52.388;13.390;2023-02-11T01:03:50;69.54;;;31.73;;
56680;SDS011;42558;52.388;13.390;2023-02-11T01:06:19;68.21;;;32.30;;
56680;SDS011;42558;52.388;13.390;2023-02-11T01:08:47;69.92;;;33.63;;
56680;SDS011;42558;52.388;13.390;2023-02-11T01:11:18;68.97;;;31.16;;
56680;SDS011;42558;52.388;13.390;2023-02-11T01:13:49;70.68;;;32.11;;
56680;SDS011;42558;52.388;13.390;2023-02-11T01:16:19;74.10;;;34.39;;
56680;SDS011;42558;52.388;13.390;2023-02-11T01:18:49;75.81;;;32.49;;
56680;SDS011;42558;52.388;13.390;2023-02-11T01:21:19;72.20;;;30.40;;
56680;SDS011;42558;52.388;13.390;2023-02-11T01:23:49;77.71;;;35.15;;
56680;SDS011;42558;52.388;13.390;2023-02-11T01:26:18;68.02;;;28.31;;
56680;SDS011;42558;52.388;13.390;2023-02-11T01:28:48;66.69;;;30.40;;
56680;SDS011;42558;52.388;13.390;2023-02-11T01:31:18;64.03;;;31.16;;
56680;SDS011;42558;52.388;13.390;2023-02-11T01:33:47;57.00;;;24.70;;
56680;SDS011;42558;52.388;13.390;2023-02-11T01:36:17;73.72;;;32.11;;
56680;SDS011;42558;52.388;13.390;2023-02-11T01:38:47;71.44;;;33.82;;
56680;SDS011;42558;52.388;13.390;2023-02-11T01:41:16;78.09;;;33.25;;
56680;SDS011;42558;52.388;13.390;2023-02-11T01:43:47;67.26;;;33.06;;
56680;SDS011;42558;52.388;13.390;2023-02-11T01:46:34;67.45;;;30.21;;
56680;SDS011;42558;52.388;13.390;2023-02-11T01:49:11;65.93;;;33.82;;
56680;SDS011;42558;52.388;13.390;2023-02-11T01:54:21;71.06;;;33.44;;
56680;SDS011;42558;52.388;13.390;2023-02-11T01:57:15;69.54;;;32.11;;
56680;SDS011;42558;52.388;13.390;2023-02-11T02:02:50;64.60;;;30.59;;
56680;SDS011;42558;52.388;13.390;2023-02-11T02:09:07;64.98;;;28.69;;
56680;SDS011;42558;52.388;13.390;2023-02-11T02:11:39;67.64;;;33.06;;
56680;SDS011;42558;52.388;13.390;2023-02-11T02:14:09;57.00;;;26.98;;
56680;SDS011;42558;52.388;13.390;2023-02-11T02:16:39;55.67;;;26.41;;
56680;SDS011;42558;52.388;13.390;2023-02-11T02:40:45;67.07;;;31.92;;
56680;SDS011;42558;52.388;13.390;2023-02-11T02:43:21;64.79;;;30.40;;
56680;SDS011;42558;52.388;13.390;2023-02-11T02:45:54;66.69;;;33.06;;
56680;SDS011;42558;52.388;13.390;2023-02-11T02:48:28;59.66;;;30.78;;
56680;SDS011;42558;52.388;13.390;2023-02-11T03:07:24;57.57;;;26.79;;
56680;SDS011;42558;52.388;13.390;2023-02-11T03:10:14;68.40;;;33.25;;
56680;SDS011;42558;52.388;13.390;2023-02-11T03:12:49;68.02;;;31.54;;
56680;SDS011;42558;52.388;13.390;2023-02-11T03:15:20;61.75;;;29.26;;
56680;SDS011;42558;52.388;13.390;2023-02-11T03:17:51;74.10;;;33.06;;
56680;SDS011;42558;52.388;13.390;2023-02-11T03:20:26;74.10;;;33.63;;
56680;SDS011;42558;52.388;13.390;2023-02-11T03:23:35;46.74;;;25.65;;
56680;SDS011;42558;52.388;13.390;2023-02-11T03:26:20;72.20;;;32.11;;
56680;SDS011;42558;52.388;13.390;2023-02-11T03:29:14;63.08;;;31.16;;
56680;SDS011;42558;52.388;13.390;2023-02-11T03:35:09;67.26;;;32.68;;
56680;SDS011;42558;52.388;13.390;2023-02-11T03:40:30;73.91;;;33.82;;
56680;SDS011;42558;52.388;13.390;2023-02-11T03:43:21;67.45;;;35.34;;
56680;SDS011;42558;52.388;13.390;2023-02-11T03:45:57;60.99;;;30.40;;
56680;SDS011;42558;52.388;13.390;2023-02-11T03:48:36;68.40;;;31.73;;
56680;SDS011;42558;52.388;13.390;2023-02-11T03:51:10;72.01;;;33.82;;
56680;SDS011;42558;52.388;13.390;2023-02-11T03:53:43;75.62;;;34.77;;
56680;SDS011;42558;52.388;13.390;2023-02-11T03:56:18;66.31;;;32.87;;
56680;SDS011;42558;52.388;13.390;2023-02-11T03:58:51;64.22;;;29.26;;
56680;SDS011;42558;52.388;13.390;2023-02-11T04:01:21;68.78;;;36.48;;
56680;SDS011;42558;52.388;13.390;2023-02-11T04:03:51;73.91;;;36.10;;
56680;SDS011;42558;52.388;13.390;2023-02-11T04:06:21;67.45;;;32.87;;
56680;SDS011;42558;52.388;13.390;2023-02-11T04:08:51;73.91;;;36.86;;
56680;SDS011;42558;52.388;13.390;2023-02-11T04:11:21;77.90;;;33.82;;
56680;SDS011;42558;52.388;13.390;2023-02-11T04:13:51;67.64;;;32.68;;
56680;SDS011;42558;52.388;13.390;2023-02-11T04:16:21;78.09;;;36.86;;
56680;SDS011;42558;52.388;13.390;2023-02-11T04:18:51;79.23;;;39.71;;
56680;SDS011;42558;52.388;13.390;2023-02-11T04:21:21;80.56;;;34.58;;
56680;SDS011;42558;52.388;13.390;2023-02-11T04:23:51;72.58;;;34.01;;
56680;SDS011;42558;52.388;13.390;2023-02-11T04:26:21;70.68;;;34.20;;
56680;SDS011;42558;52.388;13.390;2023-02-11T04:28:51;83.98;;;38.38;;
56680;SDS011;42558;52.388;13.390;2023-02-11T04:31:19;73.72;;;35.34;;
56680;SDS011;42558;52.388;13.390;2023-02-11T04:33:47;77.14;;;40.09;;
56680;SDS011;42558;52.388;13.390;2023-02-11T04:36:16;77.71;;;40.66;;
56680;SDS011;42558;52.388;13.390;2023-02-11T04:38:44;80.18;;;37.05;;
56680;SDS011;42558;52.388;13.390;2023-02-11T04:41:13;83.22;;;38.19;;
56680;SDS011;42558;52.388;13.390;2023-02-11T04:43:41;77.33;;;38.76;;
56680;SDS011;42558;52.388;13.390;2023-02-11T04:46:10;74.86;;;37.05;;
56680;SDS011;42558;52.388;13.390;2023-02-11T04:48:38;68.02;;;33.44;;
56680;SDS011;42558;52.388;13.390;2023-02-11T04:51:06;74.48;;;35.72;;
56680;SDS011;42558;52.388;13.390;2023-02-11T04:53:35;76.95;;;37.62;;
56680;SDS011;42558;52.388;13.390;2023-02-11T04:56:04;77.90;;;37.62;;
56680;SDS011;42558;52.388;13.390;2023-02-11T04:58:32;78.28;;;36.86;;
56680;SDS011;42558;52.388;13.390;2023-02-11T05:01:05;86.64;;;38.19;;
56680;SDS011;42558;52.388;13.390;2023-02-11T05:03:40;84.36;;;35.91;;
56680;SDS011;42558;52.388;13.390;2023-02-11T05:06:11;78.28;;;38.00;;
56680;SDS011;42558;52.388;13.390;2023-02-11T05:08:42;76.95;;;37.62;;
56680;SDS011;42558;52.388;13.390;2023-02-11T05:11:17;78.47;;;37.05;;
56680;SDS011;42558;52.388;13.390;2023-02-11T05:13:47;83.98;;;40.28;;
56680;SDS011;42558;52.388;13.390;2023-02-11T05:16:16;77.71;;;35.34;;
56680;SDS011;42558;52.388;13.390;2023-02-11T05:18:44;79.99;;;39.14;;
56680;SDS011;42558;52.388;13.390;2023-02-11T05:21:16;81.89;;;37.43;;
56680;SDS011;42558;52.388;13.390;2023-02-11T05:23:44;82.46;;;40.66;;
56680;SDS011;42558;52.388;13.390;2023-02-11T05:26:13;73.72;;;37.24;;
56680;SDS011;42558;52.388;13.390;2023-02-11T05:28:41;76.76;;;36.29;;
56680;SDS011;42558;52.388;13.390;2023-02-11T05:31:10;80.94;;;38.19;;
56680;SDS011;42558;52.388;13.390;2023-02-11T05:33:38;76.38;;;35.53;;
56680;SDS011;42558;52.388;13.390;2023-02-11T05:36:08;88.92;;;41.99;;
56680;SDS011;42558;52.388;13.390;2023-02-11T05:38:40;78.85;;;39.33;;
56680;SDS011;42558;52.388;13.390;2023-02-11T05:41:11;84.17;;;40.47;;
56680;SDS011;42558;52.388;13.390;2023-02-11T05:43:41;85.31;;;38.95;;
56680;SDS011;42558;52.388;13.390;2023-02-11T05:46:11;77.14;;;38.57;;
56680;SDS011;42558;52.388;13.390;2023-02-11T05:48:41;80.94;;;42.37;;
56680;SDS011;42558;52.388;13.390;2023-02-11T05:51:10;90.63;;;44.84;;
56680;SDS011;42558;52.388;13.390;2023-02-11T05:53:40;80.18;;;38.38;;
56680;SDS011;42558;52.388;13.390;2023-02-11T05:56:10;91.01;;;40.66;;
56680;SDS011;42558;52.388;13.390;2023-02-11T05:58:40;95.95;;;44.08;;
56680;SDS011;42558;52.388;13.390;2023-02-11T06:01:10;82.46;;;41.61;;
56680;SDS011;42558;52.388;13.390;2023-02-11T06:03:40;83.60;;;37.62;;
56680;SDS011;42558;52.388;13.390;2023-02-11T06:06:11;90.25;;;42.94;;
56680;SDS011;42558;52.388;13.390;2023-02-11T06:08:40;95.00;;;42.37;;
56680;SDS011;42558;52.388;13.390;2023-02-11T06:11:13;88.73;;;43.70;;
56680;SDS011;42558;52.388;13.390;2023-02-11T06:13:43;87.97;;;41.42;;
56680;SDS011;42558;52.388;13.390;2023-02-11T06:16:13;89.87;;;43.89;;
56680;SDS011;42558;52.388;13.390;2023-02-11T06:18:43;84.74;;;40.85;;
56680;SDS011;42558;52.388;13.390;2023-02-11T06:21:12;83.79;;;37.43;;
56680;SDS011;42558;52.388;13.390;2023-02-11T06:23:42;76.76;;;37.05;;
56680;SDS011;42558;52.388;13.390;2023-02-11T06:26:19;81.51;;;39.90;;
56680;SDS011;42558;52.388;13.390;2023-02-11T06:28:50;91.96;;;43.70;;
56680;SDS011;42558;52.388;13.390;2023-02-11T06:31:20;89.68;;;42.18;;
56680;SDS011;42558;52.388;13.390;2023-02-11T06:33:49;86.64;;;42.56;;
56680;SDS011;42558;52.388;13.390;2023-02-11T06:36:21;98.42;;;45.41;;
56680;SDS011;42558;52.388;13.390;2023-02-11T06:38:51;91.39;;;43.89;;
56680;SDS011;42558;52.388;13.390;2023-02-11T06:41:19;94.05;;;45.60;;
56680;SDS011;42558;52.388;13.390;2023-02-11T06:43:49;95.95;;;45.41;;
56680;SDS011;42558;52.388;13.390;2023-02-11T06:46:19;90.06;;;43.70;;
56680;SDS011;42558;52.388;13.390;2023-02-11T06:48:47;88.54;;;40.28;;
56680;SDS011;42558;52.388;13.390;2023-02-11T06:51:16;90.63;;;46.93;;
56680;SDS011;42558;52.388;13.390;2023-02-11T06:53:45;91.96;;;43.89;;
56680;SDS011;42558;52.388;13.390;2023-02-11T06:56:17;84.36;;;39.90;;
56680;SDS011;42558;52.388;13.390;2023-02-11T06:58:50;91.96;;;44.84;;
56680;SDS011;42558;52.388;13.390;2023-02-11T07:01:22;88.16;;;38.95;;
56680;SDS011;42558;52.388;13.390;2023-02-11T07:03:52;94.62;;;43.32;;
56680;SDS011;42558;52.388;13.390;2023-02-11T07:06:24;91.96;;;43.32;;
56680;SDS011;42558;52.388;13.390;2023-02-11T07:08:55;82.08;;;41.42;;
56680;SDS011;42558;52.388;13.390;2023-02-11T07:11:27;90.25;;;42.94;;
56680;SDS011;42558;52.388;13.390;2023-02-11T07:14:01;100.32;;;47.88;;
56680;SDS011;42558;52.388;13.390;2023-02-11T07:16:31;88.54;;;41.80;;
56680;SDS011;42558;52.388;13.390;2023-02-11T07:19:01;83.03;;;40.09;;
56680;SDS011;42558;52.388;13.390;2023-02-11T07:21:31;91.39;;;44.08;;
56680;SDS011;42558;52.388;13.390;2023-02-11T07:24:05;98.04;;;43.70;;
56680;SDS011;42558;52.388;13.390;2023-02-11T07:26:37;98.99;;;47.88;;
56680;SDS011;42558;52.388;13.390;2023-02-11T07:29:05;101.65;;;47.88;;
56680;SDS011;42558;52.388;13.390;2023-02-11T07:31:34;103.74;;;42.37;;
56680;SDS011;42558;52.388;13.390;2023-02-11T07:34:04;80.94;;;39.33;;
56680;SDS011;42558;52.388;13.390;2023-02-11T07:36:35;87.02;;;41.04;;
56680;SDS011;42558;52.388;13.390;2023-02-11T07:39:05;101.65;;;44.65;;
56680;SDS011;42558;52.388;13.390;2023-02-11T07:41:35;83.03;;;39.52;;
56680;SDS011;42558;52.388;13.390;2023-02-11T07:44:06;99.18;;;46.55;;
56680;SDS011;42558;52.388;13.390;2023-02-11T07:46:36;99.94;;;44.08;;
56680;SDS011;42558;52.388;13.390;2023-02-11T07:49:06;96.33;;;43.13;;
56680;SDS011;42558;52.388;13.390;2023-02-11T07:51:35;80.56;;;35.91;;
56680;SDS011;42558;52.388;13.390;2023-02-11T07:54:06;88.35;;;42.94;;
56680;SDS011;42558;52.388;13.390;2023-02-11T07:56:34;84.36;;;38.95;;
56680;SDS011;42558;52.388;13.390;2023-02-11T07:59:03;80.18;;;38.00;;
56680;SDS011;42558;52.388;13.390;2023-02-11T08:01:32;87.21;;;40.66;;
56680;SDS011;42558;52.388;13.390;2023-02-11T08:04:01;87.02;;;38.95;;
56680;SDS011;42558;52.388;13.390;2023-02-11T08:06:31;93.67;;;40.47;;
56680;SDS011;42558;52.388;13.390;2023-02-11T08:09:05;90.82;;;40.09;;
56680;SDS011;42558;52.388;13.390;2023-02-11T08:11:35;79.80;;;38.95;;
56680;SDS011;42558;52.388;13.390;2023-02-11T08:14:03;70.49;;;37.05;;
56680;SDS011;42558;52.388;13.390;2023-02-11T08:16:34;91.58;;;43.13;;
56680;SDS011;42558;52.388;13.390;2023-02-11T08:19:10;81.13;;;36.48;;
56680;SDS011;42558;52.388;13.390;2023-02-11T08:21:43;81.13;;;35.91;;
56680;SDS011;42558;52.388;13.390;2023-02-11T08:24:10;86.83;;;43.13;;
56680;SDS011;42558;52.388;13.390;2023-02-11T08:26:40;86.45;;;41.42;;
56680;SDS011;42558;52.388;13.390;2023-02-11T08:29:12;82.84;;;39.33;;
56680;SDS011;42558;52.388;13.390;2023-02-11T08:31:44;83.79;;;42.75;;
56680;SDS011;42558;52.388;13.390;2023-02-11T08:34:14;64.22;;;29.26;;
56680;SDS011;42558;52.388;13.390;2023-02-11T08:36:46;86.07;;;37.81;;
56680;SDS011;42558;52.388;13.390;2023-02-11T08:39:17;77.14;;;37.05;;
56680;SDS011;42558;52.388;13.390;2023-02-11T08:41:51;79.23;;;37.81;;
56680;SDS011;42558;52.388;13.390;2023-02-11T08:44:20;88.35;;;41.80;;
56680;SDS011;42558;52.388;13.390;2023-02-11T08:46:51;81.51;;;39.14;;
56680;SDS011;42558;52.388;13.390;2023-02-11T08:49:21;84.74;;;39.90;;
56680;SDS011;42558;52.388;13.390;2023-02-11T08:51:51;74.10;;;36.86;;
56680;SDS011;42558;52.388;13.390;2023-02-11T08:54:22;81.51;;;40.47;;
56680;SDS011;42558;52.388;13.390;2023-02-11T08:56:52;87.21;;;39.90;;
56680;SDS011;42558;52.388;13.390;2023-02-11T08:59:22;79.80;;;38.95;;
56680;SDS011;42558;52.388;13.390;2023-02-11T09:01:52;77.52;;;35.53;;
56680;SDS011;42558;52.388;13.390;2023-02-11T09:04:22;71.06;;;33.25;;
56680;SDS011;42558;52.388;13.390;2023-02-11T09:06:52;66.31;;;32.87;;
56680;SDS011;42558;52.388;13.390;2023-02-11T09:09:22;67.26;;;33.82;;
56680;SDS011;42558;52.388;13.390;2023-02-11T09:11:52;80.56;;;38.95;;
56680;SDS011;42558;52.388;13.390;2023-02-11T09:14:26;78.09;;;38.38;;
56680;SDS011;42558;52.388;13.390;2023-02-11T09:16:55;70.49;;;33.82;;
56680;SDS011;42558;52.388;13.390;2023-02-11T09:19:25;74.10;;;36.10;;
56680;SDS011;42558;52.388;13.390;2023-02-11T09:21:55;64.22;;;31.73;;
56680;SDS011;42558;52.388;13.390;2023-02-11T09:24:25;65.36;;;34.39;;
56680;SDS011;42558;52.388;13.390;2023-02-11T09:26:55;69.16;;;33.63;;
56680;SDS011;42558;52.388;13.390;2023-02-11T09:29:24;67.07;;;34.01;;
56680;SDS011;42558;52.388;13.390;2023-02-11T09:31:54;61.18;;;33.06;;
56680;SDS011;42558;52.388;13.390;2023-02-11T09:34:24;56.05;;;28.50;;
56680;SDS011;42558;52.388;13.390;2023-02-11T09:36:54;68.40;;;33.25;;
56680;SDS011;42558;52.388;13.390;2023-02-11T09:39:24;71.44;;;36.67;;
56680;SDS011;42558;52.388;13.390;2023-02-11T09:45:16;67.64;;;33.82;;
56680;SDS011;42558;52.388;13.390;2023-02-11T09:48:16;67.64;;;34.20;;
56680;SDS011;42558;52.388;13.390;2023-02-11T09:50:51;70.11;;;33.82;;
56680;SDS011;42558;52.388;13.390;2023-02-11T09:53:30;66.50;;;33.25;;
56680;SDS011;42558;52.388;13.390;2023-02-11T09:56:13;75.43;;;36.48;;
56680;SDS011;42558;52.388;13.390;2023-02-11T09:58:44;67.45;;;33.44;;
56680;SDS011;42558;52.388;13.390;2023-02-11T10:02:08;69.35;;;32.30;;
56680;SDS011;42558;52.388;13.390;2023-02-11T10:05:00;71.25;;;31.54;;
56680;SDS011;42558;52.388;13.390;2023-02-11T10:07:53;72.20;;;33.63;;
56680;SDS011;42558;52.388;13.390;2023-02-11T10:16:08;67.83;;;34.77;;
56680;SDS011;42558;52.388;13.390;2023-02-11T10:22:11;68.40;;;32.30;;
56680;SDS011;42558;52.388;13.390;2023-02-11T10:24:51;76.38;;;35.91;;
56680;SDS011;42558;52.388;13.390;2023-02-11T10:27:30;70.68;;;35.34;;
56680;SDS011;42558;52.388;13.390;2023-02-11T10:30:19;63.08;;;33.25;;
56680;SDS011;42558;52.388;13.390;2023-02-11T10:36:02;66.88;;;33.25;;
56680;SDS011;42558;52.388;13.390;2023-02-11T10:38:33;70.49;;;35.72;;
56680;SDS011;42558;52.388;13.390;2023-02-11T10:41:05;68.59;;;33.25;;
56680;SDS011;42558;52.388;13.390;2023-02-11T10:43:41;57.38;;;31.35;;
56680;SDS011;42558;52.388;13.390;2023-02-11T10:46:16;66.69;;;33.82;;
56680;SDS011;42558;52.388;13.390;2023-02-11T10:48:51;67.07;;;32.87;;
56680;SDS011;42558;52.388;13.390;2023-02-11T10:51:30;64.79;;;35.15;;
56680;SDS011;42558;52.388;13.390;2023-02-11T10:56:37;60.61;;;32.30;;
56680;SDS011;42558;52.388;13.390;2023-02-11T10:59:31;70.30;;;34.96;;
56680;SDS011;42558;52.388;13.390;2023-02-11T11:02:22;57.57;;;31.35;;
56680;SDS011;42558;52.388;13.390;2023-02-11T11:04:58;60.23;;;30.59;;
56680;SDS011;42558;52.388;13.390;2023-02-11T11:07:32;59.28;;;30.97;;
56680;SDS011;42558;52.388;13.390;2023-02-11T11:10:46;72.01;;;34.58;;
56680;SDS011;42558;52.388;13.390;2023-02-11T11:13:39;59.85;;;32.30;;
56680;SDS011;42558;52.388;13.390;2023-02-11T11:18:47;60.99;;;33.82;;
56680;SDS011;42558;52.388;13.390;2023-02-11T11:21:44;52.25;;;28.50;;
56680;SDS011;42558;52.388;13.390;2023-02-11T11:24:32;65.74;;;34.58;;
56680;SDS011;42558;52.388;13.390;2023-02-11T11:27:24;48.45;;;25.84;;
56680;SDS011;42558;52.388;13.390;2023-02-11T11:29:55;57.00;;;28.69;;
56680;SDS011;42558;52.388;13.390;2023-02-11T11:32:30;55.48;;;29.07;;
56680;SDS011;42558;52.388;13.390;2023-02-11T11:35:06;53.01;;;29.64;;
56680;SDS011;42558;52.388;13.390;2023-02-11T11:37:59;45.98;;;26.41;;
56680;SDS011;42558;52.388;13.390;2023-02-11T11:40:35;54.15;;;26.60;;
56680;SDS011;42558;52.388;13.390;2023-02-11T11:45:58;56.24;;;31.16;;
56680;SDS011;42558;52.388;13.390;2023-02-11T11:48:34;50.54;;;29.26;;
56680;SDS011;42558;52.388;13.390;2023-02-11T11:51:12;60.61;;;31.16;;
56680;SDS011;42558;52.388;13.390;2023-02-11T11:54:02;46.74;;;24.13;;
56680;SDS011;42558;52.388;13.390;2023-02-11T11:56:50;49.97;;;26.41;;
56680;SDS011;42558;52.388;13.390;2023-02-11T11:59:30;47.12;;;24.51;;
56680;SDS011;42558;52.388;13.390;2023-02-11T12:02:25;45.22;;;25.27;;
56680;SDS011;42558;52.388;13.390;2023-02-11T12:13:47;51.11;;;24.89;;
56680;SDS011;42558;52.388;13.390;2023-02-11T12:16:35;45.41;;;22.42;;
56680;SDS011;42558;52.388;13.390;2023-02-11T12:22:08;51.49;;;25.27;;
56680;SDS011;42558;52.388;13.390;2023-02-11T12:31:09;47.12;;;24.32;;
56680;SDS011;42558;52.388;13.390;2023-02-11T12:39:38;47.12;;;24.13;;
56680;SDS011;42558;52.388;13.390;2023-02-11T12:54:52;40.47;;;23.18;;
56680;SDS011;42558;52.388;13.390;2023-02-11T12:57:30;43.70;;;23.94;;
56680;SDS011;42558;52.388;13.390;2023-02-11T13:00:16;52.82;;;26.03;;
56680;SDS011;42558;52.388;13.390;2023-02-11T13:03:03;38.19;;;20.33;;
56680;SDS011;42558;52.388;13.390;2023-02-11T13:05:54;40.66;;;21.85;;
56680;SDS011;42558;52.388;13.390;2023-02-11T13:08:31;41.80;;;23.18;;
56680;SDS011;42558;52.388;13.390;2023-02-11T13:11:16;42.37;;;21.09;;
56680;SDS011;42558;52.388;13.390;2023-02-11T13:14:14;37.05;;;19.76;;
56680;SDS011;42558;52.388;13.390;2023-02-11T13:16:54;39.14;;;21.85;;
56680;SDS011;42558;52.388;13.390;2023-02-11T13:19:38;42.94;;;21.85;;
56680;SDS011;42558;52.388;13.390;2023-02-11T13:31:09;44.84;;;22.23;;
56680;SDS011;42558;52.388;13.390;2023-02-11T13:33:41;38.95;;;21.09;;
56680;SDS011;42558;52.388;13.390;2023-02-11T13:36:15;37.43;;;21.09;;
56680;SDS011;42558;52.388;13.390;2023-02-11T13:38:59;33.44;;;19.57;;
56680;SDS011;42558;52.388;13.390;2023-02-11T13:41:39;38.19;;;20.14;;
56680;SDS011;42558;52.388;13.390;2023-02-11T13:44:17;36.29;;;20.14;;
56680;SDS011;42558;52.388;13.390;2023-02-11T13:46:57;32.30;;;19.95;;
56680;SDS011;42558;52.388;13.390;2023-02-11T13:49:35;29.64;;;16.91;;
56680;SDS011;42558;52.388;13.390;2023-02-11T13:55:04;31.35;;;17.86;;
56680;SDS011;42558;52.388;13.390;2023-02-11T13:57:39;36.48;;;20.71;;
56680;SDS011;42558;52.388;13.390;2023-02-11T14:11:46;33.44;;;20.14;;
56680;SDS011;42558;52.388;13.390;2023-02-11T14:14:21;33.25;;;19.57;;
56680;SDS011;42558;52.388;13.390;2023-02-11T14:22:30;31.92;;;17.86;;
56680;SDS011;42558;52.388;13.390;2023-02-11T14:25:23;38.00;;;19.57;;
56680;SDS011;42558;52.388;13.390;2023-02-11T14:28:07;32.30;;;18.05;;
56680;SDS011;42558;52.388;13.390;2023-02-11T14:31:11;29.07;;;16.91;;
56680;SDS011;42558;52.388;13.390;2023-02-11T14:36:52;34.77;;;18.81;;
56680;SDS011;42558;52.388;13.390;2023-02-11T14:42:24;33.44;;;19.00;;
56680;SDS011;42558;52.388;13.390;2023-02-11T14:45:04;36.86;;;19.57;;
56680;SDS011;42558;52.388;13.390;2023-02-11T14:48:03;35.15;;;19.95;;
56680;SDS011;42558;52.388;13.390;2023-02-11T14:50:53;28.50;;;15.77;;
56680;SDS011;42558;52.388;13.390;2023-02-11T14:53:31;27.36;;;16.34;;
56680;SDS011;42558;52.388;13.390;2023-02-11T14:56:02;31.54;;;18.05;;
56680;SDS011;42558;52.388;13.390;2023-02-11T14:58:48;29.26;;;17.67;;
56680;SDS011;42558;52.388;13.390;2023-02-11T15:03:54;32.11;;;19.00;;
56680;SDS011;42558;52.388;13.390;2023-02-11T15:06:36;35.53;;;18.24;;
56680;SDS011;42558;52.388;13.390;2023-02-11T15:09:17;26.79;;;15.20;;
56680;SDS011;42558;52.388;13.390;2023-02-11T15:11:50;33.06;;;18.24;;
56680;SDS011;42558;52.388;13.390;2023-02-11T15:14:26;26.41;;;15.58;;
56680;SDS011;42558;52.388;13.390;2023-02-11T15:17:03;30.97;;;15.58;;
56680;SDS011;42558;52.388;13.390;2023-02-11T15:19:44;32.49;;;18.24;;
56680;SDS011;42558;52.388;13.390;2023-02-11T15:22:24;26.22;;;16.15;;
56680;SDS011;42558;52.388;13.390;2023-02-11T15:24:59;24.89;;;14.44;;
56680;SDS011;42558;52.388;13.390;2023-02-11T15:27:47;31.54;;;17.86;;
56680;SDS011;42558;52.388;13.390;2023-02-11T15:30:31;29.83;;;16.34;;
56680;SDS011;42558;52.388;13.390;2023-02-11T15:33:03;27.93;;;15.20;;
56680;SDS011;42558;52.388;13.390;2023-02-11T15:35:37;26.79;;;17.10;;
56680;SDS011;42558;52.388;13.390;2023-02-11T15:38:12;31.54;;;18.24;;
56680;SDS011;42558;52.388;13.390;2023-02-11T15:40:57;29.64;;;17.29;;
56680;SDS011;42558;52.388;13.390;2023-02-11T15:43:44;28.69;;;17.29;;
56680;SDS011;42558;52.388;13.390;2023-02-11T15:46:18;28.50;;;16.34;;
56680;SDS011;42558;52.388;13.390;2023-02-11T15:48:50;28.50;;;17.10;;
56680;SDS011;42558;52.388;13.390;2023-02-11T15:51:26;29.26;;;17.10;;
56680;SDS011;42558;52.388;13.390;2023-02-11T15:54:05;24.70;;;15.01;;
56680;SDS011;42558;52.388;13.390;2023-02-11T15:56:48;23.37;;;15.01;;
56680;SDS011;42558;52.388;13.390;2023-02-11T15:59:25;27.55;;;15.77;;
56680;SDS011;42558;52.388;13.390;2023-02-11T16:02:30;30.02;;;16.91;;
56680;SDS011;42558;52.388;13.390;2023-02-11T16:05:04;25.27;;;16.15;;
56680;SDS011;42558;52.388;13.390;2023-02-11T16:07:45;30.78;;;17.29;;
56680;SDS011;42558;52.388;13.390;2023-02-11T16:13:00;27.36;;;15.20;;
56680;SDS011;42558;52.388;13.390;2023-02-11T16:15:49;29.45;;;15.96;;
56680;SDS011;42558;52.388;13.390;2023-02-11T16:18:33;26.98;;;16.53;;
56680;SDS011;42558;52.388;13.390;2023-02-11T16:21:14;25.08;;;15.96;;
56680;SDS011;42558;52.388;13.390;2023-02-11T16:23:54;27.93;;;15.96;;
56680;SDS011;42558;52.388;13.390;2023-02-11T16:26:35;25.46;;;14.82;;
56680;SDS011;42558;52.388;13.390;2023-02-11T16:29:12;23.56;;;13.11;;
56680;SDS011;42558;52.388;13.390;2023-02-11T16:31:46;26.60;;;16.34;;
56680;SDS011;42558;52.388;13.390;2023-02-11T16:34:22;24.89;;;14.63;;
56680;SDS011;42558;52.388;13.390;2023-02-11T16:36:53;25.27;;;15.39;;
56680;SDS011;42558;52.388;13.390;2023-02-11T16:39:23;24.70;;;16.15;;
56680;SDS011;42558;52.388;13.390;2023-02-11T16:41:53;31.54;;;16.91;;
56680;SDS011;42558;52.388;13.390;2023-02-11T16:44:24;24.89;;;14.63;;
56680;SDS011;42558;52.388;13.390;2023-02-11T16:46:57;24.70;;;14.44;;
56680;SDS011;42558;52.388;13.390;2023-02-11T16:49:29;20.71;;;12.92;;
56680;SDS011;42558;52.388;13.390;2023-02-11T16:51:59;23.56;;;15.20;;
56680;SDS011;42558;52.388;13.390;2023-02-11T16:54:29;27.93;;;17.48;;
56680;SDS011;42558;52.388;13.390;2023-02-11T16:56:58;25.46;;;15.39;;
56680;SDS011;42558;52.388;13.390;2023-02-11T16:59:26;27.93;;;18.24;;
56680;SDS011;42558;52.388;13.390;2023-02-11T17:01:56;25.27;;;16.34;;
56680;SDS011;42558;52.388;13.390;2023-02-11T17:04:25;23.94;;;15.20;;
56680;SDS011;42558;52.388;13.390;2023-02-11T17:06:58;27.36;;;15.96;;
56680;SDS011;42558;52.388;13.390;2023-02-11T17:09:26;23.18;;;13.87;;
56680;SDS011;42558;52.388;13.390;2023-02-11T17:11:56;25.08;;;14.25;;
56680;SDS011;42558;52.388;13.390;2023-02-11T17:14:25;22.99;;;13.49;;
56680;SDS011;42558;52.388;13.390;2023-02-11T17:16:53;21.28;;;13.49;;
56680;SDS011;42558;52.388;13.390;2023-02-11T17:19:22;25.65;;;15.77;;
56680;SDS011;42558;52.388;13.390;2023-02-11T17:21:51;23.75;;;14.06;;
56680;SDS011;42558;52.388;13.390;2023-02-11T17:24:22;22.04;;;13.68;;